createdAt,value
2022-09-07T01:10:03.983Z,13.52
2022-09-07T01:54:35.197Z,33.87
2022-09-07T01:57:25.447Z,49.20
2022-09-07T02:04:05.044Z,35.37
2022-09-07T02:12:46.743Z,43.95
2022-09-07T02:18:46.963Z,43.55
2022-09-07T02:54:40.078Z,43.60
2022-09-07T02:57:26.130Z,19.00
2022-09-07T03:36:59.607Z,30.00
2022-09-07T03:42:31.729Z,31.98
2022-09-07T03:44:58.639Z,31.15
2022-09-07T03:55:39.898Z,28.10
2022-09-07T04:09:53.675Z,29.38
2022-09-07T04:12:20.660Z,29.87
2022-09-07T04:49:06.726Z,35.70
2022-09-07T04:51:34.306Z,37.00
2022-09-07T04:54:02.839Z,36.80
2022-09-07T04:56:30.691Z,39.00
2022-09-07T04:58:57.854Z,42.42
2022-09-07T05:01:26.294Z,39.15
2022-09-07T05:03:54.142Z,39.80
2022-09-07T05:06:22.481Z,38.70
2022-09-07T05:08:51.721Z,39.75
2022-09-07T05:11:26.216Z,41.15
2022-09-07T05:13:57.542Z,40.40
2022-09-07T05:16:25.613Z,40.30
2022-09-07T05:18:54.645Z,42.47
2022-09-07T05:21:24.086Z,41.15
2022-09-07T05:23:52.926Z,44.92
2022-09-07T05:26:22.122Z,41.22
2022-09-07T05:28:49.331Z,40.85
2022-09-07T05:31:19.649Z,40.10
2022-09-07T05:36:36.729Z,42.30
2022-09-07T05:39:05.654Z,43.10
2022-09-07T05:41:32.712Z,44.42
2022-09-07T05:46:46.747Z,45.00
2022-09-07T05:49:13.754Z,44.25
2022-09-07T05:51:41.239Z,45.13
2022-09-07T05:54:08.341Z,47.38
2022-09-07T05:56:37.436Z,45.65
2022-09-07T05:59:04.855Z,44.75
2022-09-07T06:01:32.542Z,43.95
2022-09-07T06:04:00.571Z,43.75
2022-09-07T06:06:27.483Z,43.10
2022-09-07T06:08:54.675Z,44.58
2022-09-07T06:11:33.839Z,45.35
2022-09-07T06:14:00.825Z,44.35
2022-09-07T06:16:27.727Z,45.60
2022-09-07T06:18:54.912Z,44.35
2022-09-07T06:21:23.677Z,45.70
2022-09-07T06:23:51.357Z,46.00
2022-09-07T06:26:19.755Z,41.70
2022-09-07T06:28:50.224Z,43.80
2022-09-07T06:31:20.426Z,44.05
2022-09-07T06:33:48.252Z,43.50
2022-09-07T06:36:23.261Z,44.83
2022-09-07T06:38:51.651Z,43.60
2022-09-07T06:44:11.616Z,43.22
2022-09-07T06:49:26.227Z,45.92
2022-09-07T06:51:53.150Z,44.10
2022-09-07T06:57:09.451Z,41.53
2022-09-07T06:59:37.000Z,38.88
2022-09-07T07:02:05.508Z,34.42
2022-09-07T07:04:37.787Z,36.38
2022-09-07T07:07:09.234Z,36.53
2022-09-07T07:09:36.202Z,35.97
2022-09-07T07:12:03.282Z,33.85
2022-09-07T07:14:33.818Z,30.73
2022-09-07T07:17:02.727Z,30.85
2022-09-07T07:19:29.723Z,28.35
2022-09-07T07:24:43.791Z,26.35
2022-09-07T07:27:10.645Z,27.38
2022-09-07T07:29:37.514Z,27.38
2022-09-07T07:32:04.423Z,25.75
2022-09-07T07:34:31.485Z,26.65
2022-09-07T07:36:58.349Z,23.02
2022-09-07T07:42:12.511Z,19.20
2022-09-07T07:44:39.460Z,15.27
2022-09-07T07:47:06.497Z,12.90
2022-09-07T07:49:33.315Z,11.55
2022-09-07T07:54:48.059Z,10.18
2022-09-07T07:57:16.834Z,9.90
2022-09-07T07:59:43.683Z,8.40
2022-09-07T08:02:15.845Z,7.20
2022-09-07T08:04:43.507Z,7.00
2022-09-07T08:07:12.088Z,6.65
2022-09-07T08:09:44.419Z,6.10
2022-09-07T08:12:14.248Z,5.90
2022-09-07T08:14:41.805Z,5.93
2022-09-07T08:17:13.871Z,6.22
2022-09-07T08:19:41.335Z,4.95
2022-09-07T08:22:10.040Z,4.93
2022-09-07T08:24:37.336Z,5.00
2022-09-07T08:27:04.386Z,5.03
2022-09-07T08:29:34.621Z,4.45
2022-09-07T08:32:06.529Z,5.03
2022-09-07T08:34:36.070Z,5.20
2022-09-07T08:37:03.204Z,5.03
2022-09-07T08:39:30.450Z,4.80
2022-09-07T08:42:12.271Z,5.00
2022-09-07T08:44:44.252Z,4.10
2022-09-07T08:47:29.594Z,4.38
2022-09-07T08:50:02.843Z,4.55
2022-09-07T08:52:39.616Z,4.25
2022-09-07T08:55:31.091Z,4.13
2022-09-07T08:58:32.572Z,5.82
2022-09-07T09:01:31.363Z,5.70
2022-09-07T09:07:06.833Z,5.38
2022-09-07T09:09:52.690Z,4.70
2022-09-07T09:15:30.859Z,4.10
2022-09-07T09:18:03.186Z,5.72
2022-09-07T09:20:40.876Z,4.13
2022-09-07T09:23:14.094Z,4.80
2022-09-07T09:26:07.529Z,4.22
2022-09-07T09:28:34.687Z,4.35
2022-09-07T09:31:01.788Z,3.97
2022-09-07T09:33:29.111Z,3.90
2022-09-07T09:35:59.232Z,4.13
2022-09-07T09:38:36.620Z,4.05
2022-09-07T09:41:14.843Z,4.53
2022-09-07T09:43:45.741Z,4.50
2022-09-07T09:46:27.761Z,4.47
2022-09-07T09:49:19.786Z,5.28
2022-09-07T09:54:43.362Z,4.28
2022-09-07T09:57:16.681Z,5.10
2022-09-07T10:00:01.942Z,4.80
2022-09-07T10:05:36.390Z,4.93
2022-09-07T10:08:23.050Z,4.32
2022-09-07T10:10:57.229Z,3.55
2022-09-07T10:13:46.897Z,3.75
2022-09-07T10:16:15.010Z,4.05
2022-09-07T10:18:56.156Z,3.65
2022-09-07T10:21:30.173Z,3.67
2022-09-07T10:24:14.108Z,3.97
2022-09-07T10:26:44.411Z,3.42
2022-09-07T10:29:17.490Z,3.30
2022-09-07T10:32:06.616Z,3.85
2022-09-07T10:34:39.407Z,3.08
2022-09-07T10:37:09.573Z,3.30
2022-09-07T10:39:41.391Z,3.70
2022-09-07T10:42:29.542Z,4.05
2022-09-07T10:45:11.303Z,3.80
2022-09-07T10:47:58.259Z,4.13
2022-09-07T10:50:30.034Z,3.83
2022-09-07T10:53:39.635Z,4.20
2022-09-07T10:56:12.709Z,3.13
2022-09-07T10:59:06.801Z,3.83
2022-09-07T11:01:39.763Z,3.75
2022-09-07T11:04:44.410Z,4.90
2022-09-07T11:07:41.671Z,4.40
2022-09-07T11:10:26.663Z,3.72
2022-09-07T11:12:59.313Z,3.87
2022-09-07T11:15:29.938Z,3.92
2022-09-07T11:18:07.320Z,2.90
2022-09-07T11:20:55.242Z,3.05
2022-09-07T11:23:46.877Z,3.10
2022-09-07T11:26:24.934Z,3.42
2022-09-07T11:31:57.242Z,2.60
2022-09-07T11:34:47.596Z,2.30
2022-09-07T11:37:48.779Z,3.05
2022-09-07T11:40:37.183Z,2.58
2022-09-07T11:43:16.580Z,3.15
2022-09-07T11:45:46.042Z,4.13
2022-09-07T11:48:30.413Z,3.05
2022-09-07T11:51:15.180Z,3.35
2022-09-07T11:54:00.513Z,3.20
2022-09-07T11:56:36.219Z,3.75
2022-09-07T11:59:12.285Z,4.28
2022-09-07T12:01:57.247Z,3.90
2022-09-07T12:04:30.120Z,4.73
2022-09-07T12:07:23.593Z,3.20
2022-09-07T12:10:31.209Z,2.95
2022-09-07T12:12:58.100Z,3.40
2022-09-07T12:15:27.820Z,3.45
2022-09-07T12:18:20.808Z,2.63
2022-09-07T12:20:49.098Z,3.70
2022-09-07T12:23:15.879Z,3.30
2022-09-07T12:25:44.995Z,2.53
2022-09-07T12:28:38.049Z,2.47
2022-09-07T12:31:11.183Z,2.75
2022-09-07T12:33:39.869Z,2.80
2022-09-07T12:36:27.076Z,2.92
2022-09-07T12:39:44.204Z,3.90
2022-09-07T12:42:37.459Z,3.80
2022-09-07T12:45:29.204Z,3.47
2022-09-07T12:48:04.588Z,3.22
2022-09-07T12:50:42.436Z,2.60
2022-09-07T12:53:37.575Z,2.88
2022-09-07T12:56:37.829Z,3.33
2022-09-07T12:59:49.384Z,2.75
2022-09-07T13:02:52.038Z,3.80
2022-09-07T13:05:57.785Z,2.22
2022-09-07T13:08:24.573Z,3.23
2022-09-07T13:10:51.520Z,3.35
2022-09-07T13:16:11.753Z,2.53
2022-09-07T13:18:41.498Z,2.08
2022-09-07T13:21:08.420Z,2.10
2022-09-07T13:23:35.973Z,1.98
2022-09-07T13:26:05.663Z,3.03
2022-09-07T13:28:56.104Z,2.30
2022-09-07T13:31:53.617Z,2.13
2022-09-07T13:34:33.591Z,2.38
2022-09-07T13:37:03.159Z,2.70
2022-09-07T13:39:44.578Z,2.75
2022-09-07T13:42:18.541Z,2.10
2022-09-07T13:44:56.498Z,2.33
2022-09-07T13:47:26.146Z,2.28
2022-09-07T13:50:18.214Z,2.40
2022-09-07T13:53:03.574Z,2.40
2022-09-07T13:55:54.655Z,2.53
2022-09-07T13:58:42.119Z,2.70
2022-09-07T14:01:24.313Z,2.70
2022-09-07T14:03:53.241Z,2.00
2022-09-07T14:06:23.104Z,2.50
2022-09-07T14:08:55.768Z,2.28
2022-09-07T14:11:24.257Z,2.50
2022-09-07T14:14:29.595Z,2.58
2022-09-07T14:17:06.144Z,2.47
2022-09-07T14:19:36.011Z,2.50
2022-09-07T14:22:07.165Z,2.42
2022-09-07T14:24:40.811Z,2.08
2022-09-07T14:27:20.583Z,2.30
2022-09-07T14:29:47.603Z,2.13
2022-09-07T14:32:22.588Z,2.45
2022-09-07T14:34:50.831Z,2.60
2022-09-07T14:37:21.221Z,2.47
2022-09-07T14:39:50.766Z,2.35
2022-09-07T14:42:23.139Z,2.50
2022-09-07T14:44:50.488Z,3.28
2022-09-07T14:47:33.879Z,2.40
2022-09-07T14:50:06.969Z,2.40
2022-09-07T14:53:33.368Z,2.33
2022-09-07T14:55:34.677Z,2.78
2022-09-07T14:58:13.709Z,2.75
2022-09-07T15:00:43.144Z,2.38
2022-09-07T15:03:33.220Z,2.45
2022-09-07T15:06:02.076Z,2.83
2022-09-07T15:08:46.309Z,2.67
2022-09-07T15:11:35.677Z,2.67
2022-09-07T15:14:10.158Z,2.40
2022-09-07T15:16:40.768Z,2.30
2022-09-07T15:19:16.746Z,2.47
2022-09-07T15:21:44.953Z,2.30
2022-09-07T15:24:12.173Z,2.55
2022-09-07T15:27:03.471Z,3.03
2022-09-07T15:29:31.450Z,1.70
2022-09-07T15:32:03.770Z,2.30
2022-09-07T15:34:32.377Z,2.45
2022-09-07T15:37:01.059Z,2.20
2022-09-07T15:39:29.893Z,2.03
2022-09-07T15:41:58.149Z,2.05
2022-09-07T15:44:28.047Z,2.40
2022-09-07T15:49:47.736Z,2.45
2022-09-07T15:52:17.411Z,2.03
2022-09-07T15:54:44.567Z,2.00
2022-09-07T15:59:59.908Z,2.22
2022-09-07T16:05:13.790Z,2.17
2022-09-07T16:10:31.154Z,2.42
2022-09-07T16:13:03.219Z,4.07
2022-09-07T16:15:46.092Z,2.63
2022-09-07T16:18:17.849Z,3.15
2022-09-07T16:20:45.404Z,2.35
2022-09-07T16:23:14.587Z,2.13
2022-09-07T16:25:43.438Z,2.38
2022-09-07T16:28:10.856Z,2.20
2022-09-07T16:30:41.999Z,2.70
2022-09-07T16:33:09.050Z,2.75
2022-09-07T16:35:35.925Z,2.38
2022-09-07T16:40:51.003Z,2.28
2022-09-07T16:43:18.297Z,2.25
2022-09-07T16:48:34.880Z,2.30
2022-09-07T16:51:05.514Z,2.67
2022-09-07T16:53:35.699Z,2.58
2022-09-07T16:56:11.753Z,2.20
2022-09-07T16:58:44.023Z,2.60
2022-09-07T17:01:13.552Z,2.35
2022-09-07T17:03:41.082Z,2.70
2022-09-07T17:06:11.374Z,2.67
2022-09-07T17:08:39.836Z,2.80
2022-09-07T17:11:18.882Z,3.05
2022-09-07T17:13:46.670Z,2.33
2022-09-07T17:16:14.920Z,2.47
2022-09-07T17:21:34.697Z,3.00
2022-09-07T17:24:04.303Z,2.50
2022-09-07T17:26:32.697Z,2.72
2022-09-07T17:29:00.914Z,2.60
2022-09-07T17:34:20.809Z,1.98
2022-09-07T17:36:48.156Z,2.42
2022-09-07T17:39:17.500Z,2.58
2022-09-07T17:41:46.470Z,3.72
2022-09-07T17:44:14.311Z,3.03
2022-09-07T17:46:41.192Z,3.55
2022-09-07T17:49:12.334Z,3.78
2022-09-07T17:51:39.972Z,3.70
2022-09-07T17:54:11.381Z,3.35
2022-09-07T17:56:39.415Z,3.75
2022-09-07T18:01:54.131Z,3.42
2022-09-07T18:04:21.785Z,3.83
2022-09-07T18:06:48.885Z,3.38
2022-09-07T18:09:15.797Z,3.88
2022-09-07T18:11:45.937Z,3.33
2022-09-07T18:14:14.824Z,3.50
2022-09-07T18:16:43.638Z,3.88
2022-09-07T18:19:11.417Z,3.83
2022-09-07T18:21:43.067Z,4.07
2022-09-07T18:24:19.650Z,3.70
2022-09-07T18:26:52.196Z,4.28
2022-09-07T18:29:36.895Z,4.00
2022-09-07T18:32:08.673Z,3.80
2022-09-07T18:34:38.144Z,4.40
2022-09-07T18:37:06.121Z,4.20
2022-09-07T18:39:35.281Z,4.90
2022-09-07T18:42:02.333Z,4.47
2022-09-07T18:47:23.106Z,4.38
2022-09-07T18:49:50.976Z,4.80
2022-09-07T18:55:08.681Z,4.65
2022-09-07T18:57:36.460Z,5.00
2022-09-07T19:00:07.468Z,4.55
2022-09-07T19:02:36.749Z,4.35
2022-09-07T19:07:52.159Z,4.85
2022-09-07T19:10:19.393Z,5.18
2022-09-07T19:12:46.686Z,4.28
2022-09-07T19:15:14.557Z,4.50
2022-09-07T19:17:41.818Z,4.57
2022-09-07T19:20:09.646Z,4.13
2022-09-07T19:22:36.582Z,5.00
2022-09-07T19:25:03.931Z,5.30
2022-09-07T19:27:33.022Z,5.00
2022-09-07T19:29:59.944Z,5.40
2022-09-07T19:32:26.839Z,4.57
2022-09-07T19:34:54.823Z,4.60
2022-09-07T19:37:25.902Z,4.90
2022-09-07T19:39:56.660Z,4.80
2022-09-07T19:42:25.036Z,4.78
2022-09-07T19:44:52.781Z,4.82
2022-09-07T19:47:20.790Z,4.07
2022-09-07T19:49:47.835Z,4.18
2022-09-07T19:52:15.526Z,4.55
2022-09-07T19:54:42.319Z,4.05
2022-09-07T19:57:09.252Z,3.45
2022-09-07T19:59:36.122Z,4.13
2022-09-07T20:02:03.276Z,3.05
2022-09-07T20:04:30.274Z,3.60
2022-09-07T20:06:57.259Z,3.40
2022-09-07T20:09:24.980Z,3.05
2022-09-07T20:11:51.904Z,3.00
2022-09-07T20:14:19.353Z,2.95
2022-09-07T20:16:46.489Z,3.60
2022-09-07T20:19:17.457Z,2.88
2022-09-07T20:21:44.605Z,2.95
2022-09-07T20:24:12.454Z,3.30
2022-09-07T20:26:39.693Z,2.67
2022-09-07T20:31:54.046Z,2.70
2022-09-07T20:34:21.094Z,2.50
2022-09-07T20:36:51.610Z,2.90
2022-09-07T20:39:19.653Z,2.53
2022-09-07T20:41:47.047Z,2.53
2022-09-07T20:44:14.870Z,2.80
2022-09-07T20:46:41.896Z,2.70
2022-09-07T20:49:09.804Z,2.63
2022-09-07T20:51:36.615Z,2.33
2022-09-07T20:54:03.718Z,2.22
2022-09-07T20:56:30.882Z,2.28
2022-09-07T20:59:02.694Z,2.40
2022-09-07T21:01:31.658Z,2.55
2022-09-07T21:04:00.505Z,2.50
2022-09-07T21:06:28.995Z,1.98
2022-09-07T21:08:57.282Z,2.08
2022-09-07T21:11:27.207Z,2.25
2022-09-07T21:14:11.378Z,2.30
2022-09-07T21:16:38.994Z,2.28
2022-09-07T21:19:08.223Z,2.63
2022-09-07T21:21:39.075Z,2.50
2022-09-07T21:24:12.895Z,2.40
2022-09-07T21:26:39.883Z,2.58
2022-09-07T21:29:06.716Z,1.92
2022-09-07T21:31:34.005Z,2.20
2022-09-07T21:34:02.363Z,2.10
2022-09-07T21:36:29.858Z,2.22
2022-09-07T21:38:57.169Z,2.25
2022-09-07T21:41:25.736Z,2.70
2022-09-07T21:43:56.877Z,2.75
2022-09-07T21:46:36.062Z,2.58
2022-09-07T21:49:03.699Z,2.20
2022-09-07T21:51:31.829Z,2.33
2022-09-07T21:54:00.285Z,2.60
2022-09-07T21:56:28.597Z,2.78
2022-09-07T21:58:57.557Z,2.80
2022-09-07T22:01:25.921Z,2.60
2022-09-07T22:03:55.860Z,2.15
2022-09-07T22:06:23.468Z,2.70
2022-09-07T22:08:50.974Z,3.15
2022-09-07T22:11:20.525Z,2.88
2022-09-07T22:13:48.143Z,2.40
2022-09-07T22:16:15.491Z,2.92
2022-09-07T22:18:46.014Z,3.13
2022-09-07T22:21:19.412Z,3.10
2022-09-07T22:23:49.013Z,3.13
2022-09-07T22:26:19.334Z,3.22
2022-09-07T22:28:46.722Z,3.20
2022-09-07T22:31:25.668Z,2.95
2022-09-07T22:33:54.873Z,3.35
2022-09-07T22:36:27.889Z,3.40
2022-09-07T22:38:59.242Z,3.30
2022-09-07T22:41:28.842Z,3.88
2022-09-07T22:43:56.325Z,3.63
2022-09-07T22:46:26.060Z,3.58
2022-09-07T22:48:59.285Z,3.83
2022-09-07T22:51:27.358Z,3.95
2022-09-07T22:53:55.364Z,3.38
2022-09-07T22:56:25.641Z,3.70
2022-09-07T22:58:55.913Z,3.95
2022-09-07T23:01:23.573Z,4.07
2022-09-07T23:03:51.593Z,3.28
2022-09-07T23:06:27.706Z,4.03
2022-09-07T23:08:56.585Z,3.90
2022-09-07T23:11:24.652Z,3.45
2022-09-07T23:13:53.367Z,4.13
2022-09-07T23:16:21.409Z,4.07
2022-09-07T23:18:48.993Z,3.53
2022-09-07T23:21:16.135Z,3.70
2022-09-07T23:23:43.086Z,3.83
2022-09-07T23:26:10.177Z,3.95
2022-09-07T23:28:37.253Z,4.00
2022-09-07T23:31:04.227Z,3.60
2022-09-07T23:33:31.759Z,4.22
2022-09-07T23:36:04.512Z,3.65
2022-09-07T23:38:32.473Z,3.58
2022-09-07T23:40:59.974Z,3.80
2022-09-07T23:43:28.225Z,3.70
2022-09-07T23:45:56.183Z,3.10
2022-09-07T23:48:24.057Z,3.35
2022-09-07T23:50:51.188Z,3.83
2022-09-07T23:53:18.460Z,2.83
2022-09-07T23:55:46.600Z,3.63
2022-09-07T23:58:13.696Z,3.35
